Northiam, United Kingdom
Current Conditions -  °F | °C
As of 3:20 PM on Saturday 25 Oct 2014 (Local Time) from EGMD Reporting Station
Broken Clouds Broken Clouds  
Wind Chill: 59°   Ceiling: 4400
Heat Index: 59°   Visibility: 6mi
Dew Point: 48°   Wind: 10mph
Humidity: 67%   Direction: 240°WSW
Pressure: 30.12"   Gusts: NA
Location:  50.99°N, 0.6°E
Report Text: EGMD 251420Z 24009KT 9999 FEW022 BKN044 15/09 Q1020
Loading
Personal Weather Stations






























Interactive Weather Map
Tropical Storm Tracking
New forecast layout! Learn more

10-Day Weather Forecast

Advertisements
Track Severe Weather on mobile